createdAt,value
2022-12-03T00:01:15.185Z,3.49
2022-12-03T00:03:42.242Z,3.47
2022-12-03T00:06:09.177Z,3.45
2022-12-03T00:08:35.980Z,3.54
2022-12-03T00:11:02.996Z,3.52
2022-12-03T00:13:29.784Z,3.47
2022-12-03T00:15:56.775Z,3.50
2022-12-03T00:18:24.228Z,3.55
2022-12-03T00:20:51.045Z,3.57
2022-12-03T00:23:17.936Z,3.50
2022-12-03T00:25:44.778Z,3.46
2022-12-03T00:28:11.705Z,3.44
2022-12-03T00:30:38.529Z,3.47
2022-12-03T00:33:05.485Z,3.51
2022-12-03T00:35:32.310Z,3.46
2022-12-03T00:37:59.240Z,3.43
2022-12-03T00:40:26.070Z,3.45
2022-12-03T00:42:52.922Z,3.36
2022-12-03T00:45:19.789Z,3.32
2022-12-03T00:47:46.729Z,3.41
2022-12-03T00:50:13.718Z,3.39
2022-12-03T00:52:40.517Z,3.36
2022-12-03T00:55:07.981Z,3.27
2022-12-03T00:57:34.857Z,3.35
2022-12-03T01:00:02.290Z,3.39
2022-12-03T01:02:29.798Z,3.35
2022-12-03T01:04:57.067Z,3.35
2022-12-03T01:07:24.275Z,3.46
2022-12-03T01:09:51.390Z,3.42
2022-12-03T01:12:18.426Z,3.37
2022-12-03T01:14:45.648Z,3.41
2022-12-03T01:17:13.223Z,3.39
2022-12-03T01:19:46.499Z,3.30
2022-12-03T01:22:15.969Z,3.39
2022-12-03T01:24:42.841Z,3.34
2022-12-03T01:27:09.699Z,3.32
2022-12-03T01:29:36.625Z,3.29
2022-12-03T01:32:21.883Z,3.27
2022-12-03T01:34:51.342Z,3.25
2022-12-03T01:37:21.074Z,3.01
2022-12-03T01:39:48.023Z,3.26
2022-12-03T01:42:24.484Z,3.25
2022-12-03T01:44:53.851Z,3.34
2022-12-03T01:47:27.905Z,3.40
2022-12-03T01:50:17.946Z,3.35
2022-12-03T01:52:45.418Z,3.37
2022-12-03T01:55:19.348Z,3.42
2022-12-03T01:57:50.217Z,3.44
2022-12-03T02:00:27.103Z,3.35
2022-12-03T02:03:02.524Z,3.33
2022-12-03T02:05:31.890Z,3.37
2022-12-03T02:07:59.800Z,3.34
2022-12-03T02:10:32.515Z,3.43
2022-12-03T02:13:01.186Z,3.43
2022-12-03T02:15:28.136Z,3.45
2022-12-03T02:17:56.113Z,3.43
2022-12-03T02:20:23.243Z,3.43
2022-12-03T02:23:03.515Z,3.46
2022-12-03T02:25:33.843Z,3.45
2022-12-03T02:28:02.221Z,3.44
2022-12-03T02:30:30.986Z,3.46
2022-12-03T02:32:58.489Z,3.46
2022-12-03T02:35:30.324Z,3.42
2022-12-03T02:38:08.353Z,3.37
2022-12-03T02:40:35.332Z,3.32
2022-12-03T02:43:04.949Z,3.38
2022-12-03T02:45:39.844Z,3.40
2022-12-03T02:48:09.761Z,3.41
2022-12-03T02:50:42.518Z,3.33
2022-12-03T02:53:19.450Z,3.37
2022-12-03T02:55:47.425Z,3.39
2022-12-03T02:58:15.297Z,3.42
2022-12-03T03:00:43.470Z,3.43
2022-12-03T03:03:10.737Z,3.40
2022-12-03T03:05:40.108Z,3.41
2022-12-03T03:08:11.985Z,3.37
2022-12-03T03:10:43.025Z,3.29
2022-12-03T03:13:12.479Z,3.38
2022-12-03T03:15:44.361Z,3.39
2022-12-03T03:18:13.527Z,3.38
2022-12-03T03:20:41.405Z,3.36
2022-12-03T03:23:11.318Z,3.39
2022-12-03T03:25:40.781Z,3.32
2022-12-03T03:28:08.273Z,3.32
2022-12-03T03:30:37.124Z,3.31
2022-12-03T03:33:03.959Z,3.34
2022-12-03T03:35:31.291Z,3.34
2022-12-03T03:37:58.801Z,3.36
2022-12-03T03:40:26.471Z,3.33
2022-12-03T03:42:55.557Z,3.30
2022-12-03T03:45:28.538Z,3.27
2022-12-03T03:47:58.545Z,3.27
2022-12-03T03:50:28.074Z,3.33
2022-12-03T03:52:56.324Z,3.17
2022-12-03T03:55:23.436Z,3.29
2022-12-03T03:57:51.042Z,3.46
2022-12-03T04:00:18.324Z,3.43
2022-12-03T04:02:46.134Z,3.58
2022-12-03T04:05:18.553Z,3.25
2022-12-03T04:07:45.643Z,3.40
2022-12-03T04:10:33.703Z,3.38
2022-12-03T04:13:01.085Z,3.43
2022-12-03T04:15:28.002Z,3.45
2022-12-03T04:18:14.733Z,3.44
2022-12-03T04:20:51.904Z,3.40
2022-12-03T04:23:19.385Z,3.44
2022-12-03T04:26:04.917Z,3.46
2022-12-03T04:28:50.211Z,3.45
2022-12-03T04:31:35.891Z,3.47
2022-12-03T04:34:21.336Z,3.49
2022-12-03T04:36:48.933Z,3.49
2022-12-03T04:39:15.780Z,3.44
2022-12-03T04:41:42.880Z,3.37
2022-12-03T04:44:28.644Z,3.45
2022-12-03T04:46:55.636Z,3.41
2022-12-03T04:49:22.916Z,3.48
2022-12-03T04:51:50.062Z,3.47
2022-12-03T04:54:17.112Z,3.45
2022-12-03T04:56:44.529Z,3.47
2022-12-03T04:59:15.960Z,3.52
2022-12-03T05:01:44.310Z,3.50
2022-12-03T05:04:12.448Z,3.46
2022-12-03T05:06:41.124Z,3.42
2022-12-03T05:09:08.674Z,3.39
2022-12-03T05:11:35.844Z,3.32
2022-12-03T05:14:03.024Z,3.38
2022-12-03T05:16:30.125Z,3.42
2022-12-03T05:19:06.265Z,3.46
2022-12-03T05:21:33.123Z,3.50
2022-12-03T05:24:02.998Z,3.55
2022-12-03T05:26:32.721Z,3.54
2022-12-03T05:29:01.694Z,3.57
2022-12-03T05:31:28.584Z,3.48
2022-12-03T05:33:55.429Z,3.49
2022-12-03T05:36:22.641Z,3.48
2022-12-03T05:38:49.595Z,3.45
2022-12-03T05:41:34.778Z,3.34
2022-12-03T05:44:01.846Z,3.35
2022-12-03T05:46:28.699Z,3.46
2022-12-03T05:48:55.861Z,3.46
2022-12-03T05:51:22.879Z,3.50
2022-12-03T05:53:49.944Z,3.48
2022-12-03T05:56:16.821Z,3.54
2022-12-03T05:58:43.840Z,3.55
2022-12-03T06:01:10.794Z,3.59
2022-12-03T06:03:38.096Z,3.66
2022-12-03T06:06:05.505Z,3.68
2022-12-03T06:08:32.354Z,3.69
2022-12-03T06:10:59.301Z,3.68
2022-12-03T06:13:27.110Z,3.65
2022-12-03T06:15:54.150Z,3.72
2022-12-03T06:18:21.263Z,3.77
2022-12-03T06:20:48.325Z,3.73
2022-12-03T06:23:15.522Z,3.75
2022-12-03T06:25:42.578Z,3.82
2022-12-03T06:28:24.874Z,3.78
2022-12-03T06:30:52.018Z,3.74
2022-12-03T06:33:18.933Z,3.74
2022-12-03T06:35:45.743Z,3.79
2022-12-03T06:38:12.675Z,3.81
2022-12-03T06:40:39.936Z,3.86
2022-12-03T06:43:07.088Z,3.76
2022-12-03T06:45:34.031Z,3.81
2022-12-03T06:48:01.146Z,3.78
2022-12-03T06:50:28.226Z,3.77
2022-12-03T06:52:59.939Z,3.96
2022-12-03T06:55:26.986Z,4.01
2022-12-03T06:57:53.904Z,4.04
2022-12-03T07:00:21.510Z,4.14
2022-12-03T07:02:48.628Z,4.13
2022-12-03T07:05:15.840Z,4.24
2022-12-03T07:07:45.057Z,4.05
2022-12-03T07:10:13.064Z,4.16
2022-12-03T07:12:40.338Z,4.16
2022-12-03T07:15:08.493Z,4.24
2022-12-03T07:17:36.138Z,4.22
2022-12-03T07:20:05.268Z,4.27
2022-12-03T07:22:32.856Z,4.28
2022-12-03T07:25:00.201Z,4.27
2022-12-03T07:27:27.168Z,4.37
2022-12-03T07:29:54.753Z,4.36
2022-12-03T07:32:23.477Z,4.30
2022-12-03T07:34:51.005Z,4.32
2022-12-03T07:37:22.899Z,4.35
2022-12-03T07:39:52.432Z,4.43
2022-12-03T07:42:19.584Z,4.46
2022-12-03T07:44:46.500Z,4.52
2022-12-03T07:47:13.630Z,4.56
2022-12-03T07:49:40.802Z,4.60
2022-12-03T07:52:07.924Z,4.56
2022-12-03T07:54:34.913Z,4.59
2022-12-03T07:57:02.219Z,4.67
2022-12-03T07:59:29.718Z,4.71
2022-12-03T08:01:56.808Z,4.75
2022-12-03T08:04:24.427Z,4.75
2022-12-03T08:06:51.623Z,4.75
2022-12-03T08:09:18.808Z,4.84
2022-12-03T08:11:49.775Z,4.65
2022-12-03T08:14:19.860Z,4.92
2022-12-03T08:16:50.444Z,4.77
2022-12-03T08:19:18.531Z,4.71
2022-12-03T08:21:45.918Z,4.76
2022-12-03T08:24:19.593Z,4.72
2022-12-03T08:26:48.523Z,4.81
2022-12-03T08:29:19.889Z,4.83
2022-12-03T08:31:55.889Z,4.89
2022-12-03T08:34:26.840Z,4.97
2022-12-03T08:37:01.325Z,5.02
2022-12-03T08:39:34.713Z,5.07
2022-12-03T08:42:42.416Z,5.05
2022-12-03T08:45:41.240Z,4.77
2022-12-03T08:48:21.701Z,4.91
2022-12-03T08:50:52.176Z,4.94
2022-12-03T08:53:25.244Z,5.01
2022-12-03T08:55:54.275Z,4.92
2022-12-03T08:58:36.559Z,4.89
2022-12-03T09:01:12.758Z,4.93
2022-12-03T09:03:52.543Z,4.89
2022-12-03T09:06:20.233Z,4.79
2022-12-03T09:08:47.796Z,4.77
2022-12-03T09:11:15.116Z,4.85
2022-12-03T09:13:42.345Z,4.89
2022-12-03T09:16:09.486Z,4.87
2022-12-03T09:18:37.056Z,4.85
2022-12-03T09:21:04.403Z,4.99
2022-12-03T09:23:31.454Z,4.97
2022-12-03T09:25:59.113Z,5.04
2022-12-03T09:28:26.186Z,5.11
2022-12-03T09:30:53.132Z,5.09
2022-12-03T09:33:22.649Z,5.11
2022-12-03T09:35:49.562Z,5.15
2022-12-03T09:38:16.639Z,5.08
2022-12-03T09:40:43.778Z,5.06
2022-12-03T09:43:11.929Z,5.12
2022-12-03T09:45:39.510Z,5.15
2022-12-03T09:48:06.677Z,5.15
2022-12-03T09:50:33.905Z,5.15
2022-12-03T09:53:03.986Z,5.21
2022-12-03T09:55:32.778Z,5.28
2022-12-03T09:58:01.083Z,5.15
2022-12-03T10:00:30.724Z,5.18
2022-12-03T10:03:02.471Z,5.28
2022-12-03T10:05:30.391Z,5.35
2022-12-03T10:08:12.805Z,5.19
2022-12-03T10:10:42.012Z,5.34
2022-12-03T10:13:19.823Z,5.38
2022-12-03T10:15:53.178Z,5.39
2022-12-03T10:18:30.545Z,5.41
2022-12-03T10:20:58.288Z,5.24
2022-12-03T10:23:27.760Z,5.29
2022-12-03T10:25:59.113Z,5.35
2022-12-03T10:28:34.048Z,5.00
2022-12-03T10:31:04.082Z,5.29
2022-12-03T10:33:34.464Z,5.24
2022-12-03T10:36:26.274Z,5.33
2022-12-03T10:39:06.367Z,5.35
2022-12-03T10:41:33.335Z,5.39
2022-12-03T10:44:19.498Z,5.42
2022-12-03T10:47:05.890Z,5.49
2022-12-03T10:49:33.210Z,5.45
2022-12-03T10:52:01.015Z,5.44
2022-12-03T10:54:57.151Z,5.47
2022-12-03T10:57:24.601Z,5.56
2022-12-03T11:00:20.542Z,5.57
2022-12-03T11:02:56.088Z,5.42
2022-12-03T11:05:59.963Z,5.53
2022-12-03T11:09:06.945Z,5.53
2022-12-03T11:11:52.658Z,5.44
2022-12-03T11:14:51.731Z,5.39
2022-12-03T11:17:48.305Z,5.34
2022-12-03T11:20:23.111Z,5.41
2022-12-03T11:22:58.335Z,5.38
2022-12-03T11:25:27.707Z,5.40
2022-12-03T11:28:13.640Z,5.33
2022-12-03T11:30:49.347Z,5.42
2022-12-03T11:33:27.063Z,5.54
2022-12-03T11:36:11.049Z,5.47
2022-12-03T11:38:38.073Z,5.51
2022-12-03T11:41:10.746Z,5.53
2022-12-03T11:43:53.303Z,5.62
2022-12-03T11:46:40.363Z,5.57
2022-12-03T11:49:45.870Z,5.51
2022-12-03T11:52:22.217Z,5.38
2022-12-03T11:54:54.170Z,5.53
2022-12-03T11:57:38.394Z,5.46
2022-12-03T12:00:13.733Z,5.52
2022-12-03T12:02:41.857Z,5.44
2022-12-03T12:05:19.479Z,5.31
2022-12-03T12:07:48.372Z,5.28
2022-12-03T12:10:49.161Z,5.10
2022-12-03T12:13:31.418Z,5.06
2022-12-03T12:16:01.190Z,5.03
2022-12-03T12:18:41.453Z,5.22
2022-12-03T12:21:42.537Z,5.20
2022-12-03T12:24:36.000Z,5.09
2022-12-03T12:27:33.801Z,5.16
2022-12-03T12:30:09.230Z,5.21
2022-12-03T12:32:45.635Z,5.17
2022-12-03T12:35:28.251Z,5.12
2022-12-03T12:38:33.310Z,5.23
2022-12-03T12:41:07.519Z,5.16
2022-12-03T12:43:36.347Z,5.14
2022-12-03T12:46:46.018Z,5.21
2022-12-03T12:49:00.992Z,5.14
2022-12-03T12:51:27.951Z,5.19
2022-12-03T12:53:55.193Z,5.25
2022-12-03T12:56:30.335Z,5.24
2022-12-03T12:59:12.231Z,5.06
2022-12-03T13:01:40.506Z,5.15
2022-12-03T13:04:19.667Z,5.15
2022-12-03T13:06:53.694Z,5.09
2022-12-03T13:09:38.938Z,5.17
2022-12-03T13:12:28.031Z,5.13
2022-12-03T13:14:58.921Z,5.13
2022-12-03T13:17:26.274Z,5.00
2022-12-03T13:20:05.149Z,4.84
2022-12-03T13:22:34.514Z,5.01
2022-12-03T13:25:38.295Z,5.04
2022-12-03T13:28:10.600Z,4.87
2022-12-03T13:30:37.754Z,4.80
2022-12-03T13:33:16.061Z,4.84
2022-12-03T13:35:43.389Z,4.88
2022-12-03T13:38:15.981Z,4.90
2022-12-03T13:40:43.289Z,4.95
2022-12-03T13:43:16.928Z,4.95
2022-12-03T13:46:13.785Z,4.88
2022-12-03T13:48:43.419Z,5.00
2022-12-03T13:51:32.946Z,4.99
2022-12-03T13:54:00.188Z,4.89
2022-12-03T13:56:30.400Z,4.89
2022-12-03T13:59:01.284Z,4.89
2022-12-03T14:01:29.405Z,4.88
2022-12-03T14:04:32.541Z,4.81
2022-12-03T14:07:29.960Z,4.88
2022-12-03T14:09:57.323Z,4.87
2022-12-03T14:12:27.153Z,4.98
2022-12-03T14:14:54.238Z,4.86
2022-12-03T14:17:21.378Z,4.91
2022-12-03T14:19:55.983Z,4.84
2022-12-03T14:22:25.462Z,4.84
2022-12-03T14:24:53.397Z,4.83
2022-12-03T14:27:21.439Z,4.80
2022-12-03T14:29:48.527Z,4.76
2022-12-03T14:32:15.736Z,4.66
2022-12-03T14:34:43.081Z,4.78
2022-12-03T14:37:10.151Z,4.82
2022-12-03T14:39:37.339Z,4.94
2022-12-03T14:42:13.218Z,4.92
2022-12-03T14:44:43.633Z,4.87
2022-12-03T14:47:11.838Z,4.79
2022-12-03T14:49:39.131Z,4.84
2022-12-03T14:52:09.842Z,4.86
2022-12-03T14:54:42.792Z,4.83
2022-12-03T14:57:11.899Z,4.73
2022-12-03T14:59:40.256Z,4.75
2022-12-03T15:02:07.574Z,4.78
2022-12-03T15:04:34.895Z,4.73
2022-12-03T15:07:01.782Z,4.84
2022-12-03T15:09:28.769Z,4.77
2022-12-03T15:11:56.013Z,4.82
2022-12-03T15:14:22.946Z,4.76
2022-12-03T15:16:49.961Z,4.74
2022-12-03T15:19:17.031Z,4.70
2022-12-03T15:21:43.960Z,4.78
2022-12-03T15:24:10.822Z,4.79
2022-12-03T15:26:37.837Z,4.76
2022-12-03T15:29:04.954Z,4.55
2022-12-03T15:31:32.062Z,4.61
2022-12-03T15:33:59.194Z,4.63
2022-12-03T15:36:26.681Z,4.57
2022-12-03T15:38:53.846Z,4.69
2022-12-03T15:41:30.052Z,4.51
2022-12-03T15:43:59.695Z,4.28
2022-12-03T15:46:28.106Z,4.61
2022-12-03T15:48:55.870Z,4.65
2022-12-03T15:51:23.723Z,4.63
2022-12-03T15:53:59.932Z,4.58
2022-12-03T15:56:26.771Z,4.61
2022-12-03T15:58:53.975Z,4.58
2022-12-03T16:01:22.099Z,4.65
2022-12-03T16:03:49.193Z,4.59
2022-12-03T16:06:18.290Z,4.56
2022-12-03T16:08:45.203Z,4.64
2022-12-03T16:11:12.087Z,4.68
2022-12-03T16:13:39.069Z,4.66
2022-12-03T16:16:06.388Z,4.70
2022-12-03T16:18:33.338Z,4.63
2022-12-03T16:21:00.139Z,4.72
2022-12-03T16:23:27.111Z,4.69
2022-12-03T16:25:54.152Z,4.66
2022-12-03T16:28:21.249Z,4.66
2022-12-03T16:30:48.524Z,4.63
2022-12-03T16:33:15.489Z,4.52
2022-12-03T16:35:42.327Z,4.65
2022-12-03T16:38:09.311Z,4.63
2022-12-03T16:40:36.274Z,4.67
2022-12-03T16:43:04.965Z,4.63
2022-12-03T16:45:34.431Z,4.65
2022-12-03T16:48:02.273Z,4.53
2022-12-03T16:50:30.435Z,4.52
2022-12-03T16:52:57.903Z,4.61
2022-12-03T16:55:25.156Z,4.58
2022-12-03T16:57:51.984Z,4.65
2022-12-03T17:00:21.979Z,4.60
2022-12-03T17:02:49.041Z,4.59
2022-12-03T17:05:16.240Z,4.59
2022-12-03T17:07:43.516Z,4.59
2022-12-03T17:10:11.262Z,4.55
2022-12-03T17:13:07.671Z,4.53
2022-12-03T17:15:28.127Z,4.51
2022-12-03T17:17:55.272Z,4.54
2022-12-03T17:20:22.299Z,4.54
2022-12-03T17:22:49.165Z,4.58
2022-12-03T17:25:16.546Z,4.49
2022-12-03T17:27:45.557Z,4.46
2022-12-03T17:30:13.656Z,4.48
2022-12-03T17:32:40.665Z,4.50
2022-12-03T17:35:08.290Z,4.53
2022-12-03T17:37:36.092Z,4.49
2022-12-03T17:40:08.185Z,4.42
2022-12-03T17:42:35.098Z,4.42
2022-12-03T17:45:02.163Z,4.47
2022-12-03T17:47:28.985Z,4.43
2022-12-03T17:49:56.249Z,4.44
2022-12-03T17:52:23.660Z,4.50
2022-12-03T17:57:37.415Z,4.37
2022-12-03T18:00:17.031Z,4.44
2022-12-03T18:02:44.095Z,4.35
2022-12-03T18:05:11.059Z,4.44
2022-12-03T18:07:37.932Z,4.36
2022-12-03T18:10:05.495Z,4.35
2022-12-03T18:12:32.832Z,4.42
2022-12-03T18:14:59.713Z,4.31
2022-12-03T18:17:26.641Z,4.37
2022-12-03T18:19:53.864Z,4.38
2022-12-03T18:22:21.152Z,4.35
2022-12-03T18:24:51.558Z,4.44
2022-12-03T18:27:20.393Z,4.36
2022-12-03T18:29:47.399Z,4.39
2022-12-03T18:32:27.649Z,4.37
2022-12-03T18:35:08.543Z,4.38
2022-12-03T18:37:35.807Z,4.31
2022-12-03T18:40:12.351Z,4.36
2022-12-03T18:42:39.918Z,4.29
2022-12-03T18:45:07.258Z,4.33
2022-12-03T18:47:34.242Z,4.28
2022-12-03T18:50:03.690Z,4.25
2022-12-03T18:52:30.626Z,4.21
2022-12-03T18:54:58.626Z,4.28
2022-12-03T18:57:27.348Z,4.12
2022-12-03T18:59:55.482Z,4.15
2022-12-03T19:05:22.142Z,4.11
2022-12-03T19:07:51.342Z,4.05
2022-12-03T19:10:18.977Z,4.16
2022-12-03T19:12:45.885Z,4.03
2022-12-03T19:15:12.862Z,4.07
2022-12-03T19:17:40.327Z,4.09
2022-12-03T19:20:09.641Z,4.07
2022-12-03T19:22:37.049Z,4.03
2022-12-03T19:25:04.855Z,4.09
2022-12-03T19:27:32.176Z,4.04
2022-12-03T19:29:59.405Z,4.08
2022-12-03T19:32:26.365Z,4.01
2022-12-03T19:34:53.201Z,4.14
2022-12-03T19:37:20.225Z,4.12
2022-12-03T19:39:47.107Z,4.10
2022-12-03T19:42:14.140Z,4.10
2022-12-03T19:44:44.456Z,4.16
2022-12-03T19:47:11.795Z,4.02
2022-12-03T19:49:38.702Z,4.09
2022-12-03T19:52:05.589Z,4.09
2022-12-03T19:54:32.502Z,4.06
2022-12-03T19:56:59.532Z,4.10
2022-12-03T19:59:26.385Z,4.12
2022-12-03T20:01:53.578Z,4.11
2022-12-03T20:04:20.472Z,4.16
2022-12-03T20:06:48.402Z,4.10
2022-12-03T20:09:18.034Z,4.11
2022-12-03T20:11:46.953Z,4.01
2022-12-03T20:14:15.878Z,3.97
2022-12-03T20:17:11.206Z,4.09
2022-12-03T20:19:38.063Z,4.08
2022-12-03T20:22:04.963Z,3.94
2022-12-03T20:24:31.854Z,4.02
2022-12-03T20:26:58.688Z,4.02
2022-12-03T20:29:25.565Z,3.89
2022-12-03T20:31:52.817Z,3.96
2022-12-03T20:34:19.901Z,3.98
2022-12-03T20:36:53.033Z,3.94
2022-12-03T20:39:20.504Z,3.88
2022-12-03T20:41:52.102Z,3.84
2022-12-03T20:44:24.746Z,3.86
2022-12-03T20:47:02.436Z,3.87
2022-12-03T20:49:29.232Z,3.89
2022-12-03T20:51:58.685Z,3.84
2022-12-03T20:54:29.466Z,3.90
2022-12-03T20:56:56.236Z,3.86
2022-12-03T20:59:23.166Z,3.93
2022-12-03T21:01:50.025Z,3.93
2022-12-03T21:04:18.147Z,3.81
2022-12-03T21:06:45.411Z,3.79
2022-12-03T21:09:12.872Z,3.78
2022-12-03T21:11:42.682Z,3.83
2022-12-03T21:14:11.347Z,3.78
2022-12-03T21:17:06.538Z,3.76
2022-12-03T21:19:27.168Z,3.63
2022-12-03T21:21:54.194Z,3.68
2022-12-03T21:24:21.008Z,3.72
2022-12-03T21:26:48.041Z,3.58
2022-12-03T21:29:15.136Z,3.64
2022-12-03T21:31:42.086Z,3.63
2022-12-03T21:34:09.048Z,3.66
2022-12-03T21:36:36.153Z,3.65
2022-12-03T21:39:06.709Z,3.57
2022-12-03T21:41:35.211Z,3.55
2022-12-03T21:44:02.498Z,3.50
2022-12-03T21:47:10.953Z,3.54
2022-12-03T21:49:24.152Z,3.51
2022-12-03T21:51:52.861Z,3.55
2022-12-03T21:54:20.491Z,3.35
2022-12-03T21:56:47.320Z,3.58
2022-12-03T21:59:20.519Z,3.51
2022-12-03T22:01:47.684Z,3.49
2022-12-03T22:04:14.698Z,3.47
2022-12-03T22:06:41.509Z,3.45
2022-12-03T22:09:08.503Z,3.50
2022-12-03T22:11:35.379Z,3.47
2022-12-03T22:14:04.770Z,3.48
2022-12-03T22:16:31.679Z,3.38
2022-12-03T22:18:59.841Z,3.49
2022-12-03T22:21:27.572Z,3.54
2022-12-03T22:23:56.063Z,3.50
2022-12-03T22:26:22.975Z,3.44
2022-12-03T22:28:50.489Z,3.45
2022-12-03T22:31:18.547Z,3.27
2022-12-03T22:33:48.473Z,3.36
2022-12-03T22:36:21.074Z,3.32
2022-12-03T22:38:49.846Z,3.40
2022-12-03T22:41:17.972Z,3.37
2022-12-03T22:43:46.249Z,3.44
2022-12-03T22:46:14.053Z,3.39
2022-12-03T22:48:45.736Z,3.29
2022-12-03T22:51:18.606Z,3.38
2022-12-03T22:53:45.440Z,3.29
2022-12-03T22:56:12.390Z,3.36
2022-12-03T22:58:40.469Z,3.39
2022-12-03T23:01:08.164Z,3.27
2022-12-03T23:03:36.144Z,3.43
2022-12-03T23:06:10.039Z,3.38
2022-12-03T23:08:37.053Z,3.47
2022-12-03T23:11:03.994Z,3.38
2022-12-03T23:13:30.810Z,3.42
2022-12-03T23:15:59.654Z,3.39
2022-12-03T23:18:26.570Z,3.39
2022-12-03T23:20:55.381Z,3.37
2022-12-03T23:23:24.622Z,3.26
2022-12-03T23:26:07.519Z,3.30
2022-12-03T23:28:36.093Z,3.19
2022-12-03T23:31:03.592Z,3.32
2022-12-03T23:33:36.699Z,3.24
2022-12-03T23:36:06.804Z,3.28
2022-12-03T23:38:33.941Z,3.26
2022-12-03T23:41:08.997Z,3.26
2022-12-03T23:43:35.940Z,3.24
2022-12-03T23:46:05.246Z,3.26
2022-12-03T23:48:32.186Z,3.13
2022-12-03T23:51:00.002Z,3.22
2022-12-03T23:53:26.799Z,3.24
2022-12-03T23:55:53.640Z,3.32
2022-12-03T23:58:20.537Z,3.26
